Time;durP1;ratioP1;P1;durP2;ratioP2;P2;SDS_P1;SDS_P2;PMS_P1;PMS_P2;Temp;Humidity;BMP_temperature;BMP_pressure;BME280_temperature;BME280_humidity;BME280_pressure;Samples;Min_cycle;Max_cycle;Signal;HPM_P1;HPM_P2
2023/11/24 00:02:35;;;;;;;2.90;0.77;;;;;;;;;;4998953;28;20050;-58
2023/11/24 00:05:29;;;;;;;5.45;0.60;;;;;;;;;;5001359;28;20487;-59
2023/11/24 00:08:25;;;;;;;3.90;0.80;;;;;;;;;;4997618;28;20501;-46
2023/11/24 00:11:18;;;;;;;0.50;0.50;;;;;;;;;;4996730;28;20221;-50
2023/11/24 00:14:11;;;;;;;0.63;0.50;;;;;;;;;;5002151;28;20077;-48
2023/11/24 00:16:58;;;;;;;0.88;0.40;;;;;;;;;;5001934;28;20053;-51
2023/11/24 00:19:32;;;;;;;2.05;0.80;;;;;;;;;;5000793;28;20058;-50
2023/11/24 00:22:00;;;;;;;4.60;0.88;;;;;;;;;;4997612;28;20065;-47
2023/11/24 00:24:36;;;;;;;0.95;0.52;;;;;;;;;;5001238;28;20100;-48
2023/11/24 00:27:03;;;;;;;0.60;0.35;;;;;;;;;;5002326;28;20108;-60
2023/11/24 00:29:31;;;;;;;;;;;;;;;;;;5003030;28;20152;-61
2023/11/24 00:32:06;;;;;;;2.00;0.40;;;;;;;;;;5010709;28;19973;-60
2023/11/24 00:34:33;;;;;;;3.67;0.70;;;;;;;;;;5000509;28;20054;-60
2023/11/24 00:37:08;;;;;;;1.70;0.40;;;;;;;;;;4996181;28;20054;-55
2023/11/24 00:39:36;;;;;;;2.28;0.55;;;;;;;;;;4999018;28;20144;-65
2023/11/24 00:42:04;;;;;;;1.50;0.60;;;;;;;;;;4997158;28;20061;-65
2023/11/24 00:44:37;;;;;;;3.10;1.05;;;;;;;;;;4995662;28;20119;-66
2023/11/24 00:47:04;;;;;;;2.28;0.90;;;;;;;;;;4999207;28;20092;-65
2023/11/24 00:49:39;;;;;;;1.80;1.05;;;;;;;;;;4994108;28;20185;-66
2023/11/24 00:52:06;;;;;;;6.82;1.63;;;;;;;;;;4998066;28;20061;-66
2023/11/24 00:54:33;;;;;;;6.47;1.10;;;;;;;;;;4998282;28;20053;-52
2023/11/24 00:57:07;;;;;;;2.85;0.82;;;;;;;;;;4995992;28;20069;-54
2023/11/24 00:59:35;;;;;;;;;;;;;;;;;;5012314;28;20501;-54
2023/11/24 01:02:09;;;;;;;2.55;0.80;;;;;;;;;;5009295;28;19995;-53
2023/11/24 01:04:36;;;;;;;1.58;0.82;;;;;;;;;;4997880;28;20116;-58
2023/11/24 01:07:04;;;;;;;5.10;1.00;;;;;;;;;;4996871;28;20062;-48
2023/11/24 01:09:37;;;;;;;2.75;0.70;;;;;;;;;;4997548;28;20100;-48
2023/11/24 01:12:05;;;;;;;;;;;;;;;;;;4995842;28;20049;-47
2023/11/24 01:14:38;;;;;;;8.60;1.50;;;;;;;;;;4998151;28;20415;-48
2023/11/24 01:17:06;;;;;;;3.88;1.17;;;;;;;;;;5011779;28;20416;-46
2023/11/24 01:19:33;;;;;;;2.67;1.05;;;;;;;;;;4996829;28;20511;-48
2023/11/24 01:22:08;;;;;;;5.25;1.05;;;;;;;;;;4994125;28;20081;-46
2023/11/24 01:24:38;;;;;;;4.32;0.80;;;;;;;;;;4998460;28;20515;-56
2023/11/24 01:27:12;;;;;;;5.10;1.45;;;;;;;;;;4995133;28;20104;-57
2023/11/24 01:29:39;;;;;;;3.00;0.88;;;;;;;;;;4998436;28;20058;-57
2023/11/24 01:32:07;;;;;;;5.55;1.15;;;;;;;;;;4995314;28;20061;-55
2023/11/24 01:34:41;;;;;;;3.30;0.85;;;;;;;;;;4994579;28;20054;-56
2023/11/24 01:37:08;;;;;;;1.35;0.80;;;;;;;;;;4998430;28;20628;-49
2023/11/24 01:39:42;;;;;;;4.65;1.00;;;;;;;;;;4995954;28;20101;-50
2023/11/24 01:42:10;;;;;;;4.43;0.90;;;;;;;;;;4995392;28;20049;-45
2023/11/24 01:44:37;;;;;;;2.83;1.15;;;;;;;;;;4993116;28;20124;-49
2023/11/24 01:47:10;;;;;;;2.88;1.13;;;;;;;;;;4996610;28;20108;-48
2023/11/24 01:49:39;;;;;;;5.38;0.82;;;;;;;;;;4994124;28;20053;-47
2023/11/24 01:52:06;;;;;;;3.08;0.75;;;;;;;;;;4996603;28;20128;-58
2023/11/24 01:54:40;;;;;;;4.10;0.90;;;;;;;;;;4998590;28;20517;-59
2023/11/24 01:57:08;;;;;;;4.43;0.90;;;;;;;;;;4996296;28;20144;-59
2023/11/24 01:59:41;;;;;;;5.82;1.00;;;;;;;;;;4996106;28;20050;-57
2023/11/24 02:02:09;;;;;;;2.75;0.80;;;;;;;;;;4995268;28;20587;-66
2023/11/24 02:04:43;;;;;;;3.70;1.02;;;;;;;;;;5011075;28;20053;-60
2023/11/24 02:07:17;;;;;;;5.68;1.08;;;;;;;;;;4997656;28;20185;-60
2023/11/24 02:09:44;;;;;;;3.85;0.88;;;;;;;;;;5000000;28;20100;-60
2023/11/24 02:12:31;;;;;;;2.10;0.65;;;;;;;;;;4995692;28;20057;-59
2023/11/24 02:15:07;;;;;;;1.85;0.93;;;;;;;;;;4998763;28;20112;-60
2023/11/24 02:17:41;;;;;;;3.45;1.08;;;;;;;;;;5000372;28;20111;-60
2023/11/24 02:20:11;;;;;;;5.10;0.85;;;;;;;;;;5001007;28;20137;-66
2023/11/24 02:22:42;;;;;;;8.65;1.85;;;;;;;;;;5001731;28;20046;-66
2023/11/24 02:25:16;;;;;;;4.57;0.88;;;;;;;;;;4998458;28;20062;-67
2023/11/24 02:27:43;;;;;;;3.45;1.10;;;;;;;;;;5002127;28;20061;-65
2023/11/24 02:30:11;;;;;;;2.50;0.73;;;;;;;;;;5000930;28;20586;-56
2023/11/24 02:32:45;;;;;;;2.38;0.73;;;;;;;;;;4997543;28;20061;-58
2023/11/24 02:35:13;;;;;;;10.90;0.93;;;;;;;;;;4998355;28;20485;-60
2023/11/24 02:37:46;;;;;;;5.47;1.10;;;;;;;;;;4998779;28;20464;-59
2023/11/24 02:40:13;;;;;;;5.82;1.10;;;;;;;;;;4997747;28;20128;-57
2023/11/24 02:42:41;;;;;;;5.05;1.08;;;;;;;;;;5000120;28;20084;-57
2023/11/24 02:45:14;;;;;;;1.65;0.95;;;;;;;;;;4998724;28;20091;-58
2023/11/24 02:47:41;;;;;;;2.58;1.00;;;;;;;;;;5001959;28;20061;-58
2023/11/24 02:50:15;;;;;;;5.43;0.82;;;;;;;;;;5000943;28;20061;-55
2023/11/24 02:52:42;;;;;;;5.10;1.00;;;;;;;;;;4997542;28;20586;-57
2023/11/24 02:55:10;;;;;;;3.97;0.85;;;;;;;;;;4997108;28;20057;-58
2023/11/24 02:57:44;;;;;;;4.43;0.93;;;;;;;;;;5000179;28;20080;-66
2023/11/24 03:00:17;;;;;;;;;;;;;;;;;;5001215;28;20054;-58
2023/11/24 03:02:51;;;;;;;5.88;0.98;;;;;;;;;;5002491;28;19921;-59
2023/11/24 03:05:19;;;;;;;5.47;0.95;;;;;;;;;;4998603;28;20760;-59
2023/11/24 03:07:52;;;;;;;2.28;0.80;;;;;;;;;;4998391;28;20050;-60
2023/11/24 03:10:19;;;;;;;4.97;1.20;;;;;;;;;;4999775;28;20054;-58
2023/11/24 03:12:47;;;;;;;3.60;0.80;;;;;;;;;;5000685;28;20081;-59
2023/11/24 03:15:21;;;;;;;7.97;0.90;;;;;;;;;;4999352;28;20054;-59
2023/11/24 03:17:48;;;;;;;3.17;1.20;;;;;;;;;;5001108;28;20057;-60
2023/11/24 03:20:22;;;;;;;4.97;0.80;;;;;;;;;;5000011;28;20050;-59
2023/11/24 03:22:49;;;;;;;7.25;1.75;;;;;;;;;;4996567;28;20046;-59
2023/11/24 03:25:17;;;;;;;2.60;0.70;;;;;;;;;;4999589;28;20054;-59
2023/11/24 03:27:51;;;;;;;7.57;1.33;;;;;;;;;;4995950;28;20562;-61
2023/11/24 03:30:18;;;;;;;3.72;1.20;;;;;;;;;;4999878;28;20065;-59
2023/11/24 03:32:53;;;;;;;2.85;1.10;;;;;;;;;;4996916;28;20054;-60
2023/11/24 03:35:20;;;;;;;5.00;1.00;;;;;;;;;;4998110;28;20509;-59
2023/11/24 03:37:47;;;;;;;2.45;0.90;;;;;;;;;;4996206;28;20052;-59
2023/11/24 03:40:21;;;;;;;3.10;0.65;;;;;;;;;;4996875;28;20376;-60
2023/11/24 03:42:49;;;;;;;5.53;0.82;;;;;;;;;;4996181;28;20096;-59
2023/11/24 03:45:24;;;;;;;2.85;1.00;;;;;;;;;;4998988;28;20050;-59
2023/11/24 03:47:51;;;;;;;5.00;1.00;;;;;;;;;;4999208;28;20058;-59
2023/11/24 03:50:18;;;;;;;1.33;0.70;;;;;;;;;;4995009;28;20053;-59
2023/11/24 03:52:53;;;;;;;3.63;1.02;;;;;;;;;;4999040;28;20064;-59
2023/11/24 03:55:20;;;;;;;6.88;1.00;;;;;;;;;;4997584;28;20054;-59
2023/11/24 03:57:54;;;;;;;4.13;0.95;;;;;;;;;;5000202;28;20049;-61
2023/11/24 04:00:22;;;;;;;5.57;0.90;;;;;;;;;;4997761;28;20061;-61
2023/11/24 04:02:49;;;;;;;2.85;1.00;;;;;;;;;;5001375;28;20124;-61
2023/11/24 04:05:22;;;;;;;4.65;1.10;;;;;;;;;;4995747;28;20124;-61
2023/11/24 04:07:49;;;;;;;9.07;1.05;;;;;;;;;;4998819;28;20057;-61
2023/11/24 04:10:30;;;;;;;2.63;0.75;;;;;;;;;;4994614;28;20490;-61
2023/11/24 04:13:04;;;;;;;5.72;1.10;;;;;;;;;;4998593;28;20081;-51
2023/11/24 04:15:38;;;;;;;5.70;1.10;;;;;;;;;;4998875;28;20107;-48
2023/11/24 04:18:06;;;;;;;6.82;1.48;;;;;;;;;;4999678;28;20493;-53
2023/11/24 04:20:33;;;;;;;8.35;0.90;;;;;;;;;;4998136;28;20069;-52
2023/11/24 04:23:10;;;;;;;3.38;0.90;;;;;;;;;;4996406;28;20057;-58
2023/11/24 04:25:38;;;;;;;4.25;0.88;;;;;;;;;;4996881;28;20088;-49
2023/11/24 04:28:14;;;;;;;5.20;1.20;;;;;;;;;;4999315;28;20049;-66
2023/11/24 04:30:41;;;;;;;3.00;1.02;;;;;;;;;;4997465;28;20119;-65
2023/11/24 04:33:08;;;;;;;9.15;1.50;;;;;;;;;;4995292;28;20072;-66
2023/11/24 04:35:43;;;;;;;4.40;0.90;;;;;;;;;;5000724;28;20078;-65
2023/11/24 04:38:10;;;;;;;2.83;0.98;;;;;;;;;;4995648;28;20058;-65
2023/11/24 04:40:43;;;;;;;3.42;0.85;;;;;;;;;;4996763;28;20058;-64
2023/11/24 04:43:10;;;;;;;9.45;1.38;;;;;;;;;;4998781;28;20058;-59
2023/11/24 04:45:39;;;;;;;5.20;1.27;;;;;;;;;;4999328;28;20425;-59
2023/11/24 04:48:15;;;;;;;5.53;0.85;;;;;;;;;;4995646;28;20128;-59
2023/11/24 04:50:42;;;;;;;6.30;1.10;;;;;;;;;;4994063;28;20508;-59
2023/11/24 04:53:16;;;;;;;4.82;1.20;;;;;;;;;;4991918;28;20575;-55
2023/11/24 04:55:44;;;;;;;;;;;;;;;;;;4992594;28;20326;-58
2023/11/24 04:58:11;;;;;;;4.68;0.95;;;;;;;;;;4996511;28;19930;-56
2023/11/24 05:00:44;;;;;;;6.70;1.17;;;;;;;;;;4994583;28;20068;-59
2023/11/24 05:03:12;;;;;;;4.97;1.30;;;;;;;;;;4992359;28;20053;-58
2023/11/24 05:05:39;;;;;;;;;;;;;;;;;;4994206;28;20536;-57
2023/11/24 05:08:13;;;;;;;13.25;1.40;;;;;;;;;;4999177;28;19925;-59
2023/11/24 05:10:40;;;;;;;;;;;;;;;;;;4998505;28;20058;-60
2023/11/24 05:13:20;;;;;;;5.03;1.00;;;;;;;;;;4999908;28;20423;-59
2023/11/24 05:15:48;;;;;;;5.32;1.42;;;;;;;;;;5001213;28;20045;-59
2023/11/24 05:18:21;;;;;;;5.45;1.33;;;;;;;;;;5001154;28;20050;-60
2023/11/24 05:20:49;;;;;;;5.00;1.08;;;;;;;;;;5000440;28;20069;-50
2023/11/24 05:23:16;;;;;;;10.25;1.33;;;;;;;;;;4986311;28;20120;-51
2023/11/24 05:25:50;;;;;;;7.68;1.17;;;;;;;;;;4986545;28;20054;-50
2023/11/24 05:28:18;;;;;;;5.03;1.05;;;;;;;;;;4997240;28;20049;-48
2023/11/24 05:30:45;;;;;;;6.55;1.20;;;;;;;;;;4994415;28;20069;-48
2023/11/24 05:33:18;;;;;;;4.95;1.13;;;;;;;;;;4997455;28;20046;-50
2023/11/24 05:35:46;;;;;;;10.07;1.38;;;;;;;;;;4995479;28;20050;-46
2023/11/24 05:38:19;;;;;;;2.45;1.02;;;;;;;;;;4992541;28;20066;-48
2023/11/24 05:40:46;;;;;;;4.75;0.93;;;;;;;;;;4992905;28;20049;-47
2023/11/24 05:43:14;;;;;;;1.13;0.68;;;;;;;;;;4988826;28;20667;-47
2023/11/24 05:45:47;;;;;;;5.82;1.25;;;;;;;;;;4993221;28;20490;-47
2023/11/24 05:48:15;;;;;;;;;;;;;;;;;;4998261;28;20516;-49
2023/11/24 05:50:42;;;;;;;6.43;1.30;;;;;;;;;;4997830;28;20454;-60
2023/11/24 05:53:16;;;;;;;4.18;1.10;;;;;;;;;;4997781;28;20552;-55
2023/11/24 05:55:43;;;;;;;6.70;1.67;;;;;;;;;;4995634;28;20509;-56
2023/11/24 05:58:17;;;;;;;4.07;1.00;;;;;;;;;;4999326;28;20500;-55
2023/11/24 06:00:45;;;;;;;8.02;1.05;;;;;;;;;;4995438;28;20505;-53
2023/11/24 06:03:12;;;;;;;8.10;1.20;;;;;;;;;;4999669;28;20077;-53
2023/11/24 06:05:46;;;;;;;8.63;1.10;;;;;;;;;;4999102;28;20505;-53
2023/11/24 06:08:13;;;;;;;6.88;1.42;;;;;;;;;;5000592;28;20057;-55
2023/11/24 06:10:47;;;;;;;7.50;2.10;;;;;;;;;;4999441;28;20046;-54
2023/11/24 06:13:22;;;;;;;;;;;;;;;;;;4998401;28;20073;-54
2023/11/24 06:15:56;;;;;;;5.65;1.30;;;;;;;;;;5000075;28;19929;-54
2023/11/24 06:18:25;;;;;;;3.83;1.27;;;;;;;;;;4999145;28;20137;-65
2023/11/24 06:20:53;;;;;;;11.70;1.58;;;;;;;;;;4999004;28;20469;-59
2023/11/24 06:23:26;;;;;;;3.70;1.17;;;;;;;;;;4993870;28;20104;-59
2023/11/24 06:25:54;;;;;;;13.65;1.50;;;;;;;;;;4997351;28;20413;-58
2023/11/24 06:28:27;;;;;;;8.40;1.50;;;;;;;;;;5000660;28;20120;-59
2023/11/24 06:30:55;;;;;;;7.35;1.52;;;;;;;;;;5000038;28;20058;-59
2023/11/24 06:33:22;;;;;;;8.93;1.92;;;;;;;;;;5001239;28;20056;-58
2023/11/24 06:35:55;;;;;;;6.18;1.48;;;;;;;;;;5002832;28;20133;-59
2023/11/24 06:38:22;;;;;;;4.70;1.60;;;;;;;;;;4997276;28;20096;-58
2023/11/24 06:40:56;;;;;;;8.57;1.35;;;;;;;;;;4998024;28;20112;-60
2023/11/24 06:43:23;;;;;;;5.00;2.10;;;;;;;;;;4999406;28;20513;-59
2023/11/24 06:45:51;;;;;;;10.73;1.58;;;;;;;;;;5000218;28;20137;-49
2023/11/24 06:48:25;;;;;;;4.68;1.30;;;;;;;;;;5000043;28;20524;-57
2023/11/24 06:50:52;;;;;;;8.38;1.55;;;;;;;;;;4998071;28;20140;-56
2023/11/24 06:53:26;;;;;;;4.20;1.50;;;;;;;;;;4997205;28;20053;-58
2023/11/24 06:55:54;;;;;;;4.60;1.27;;;;;;;;;;4996380;28;20061;-55
2023/11/24 06:58:21;;;;;;;;;;;;;;;;;;5000916;28;20132;-54
2023/11/24 07:00:55;;;;;;;6.70;1.08;;;;;;;;;;5001992;28;19936;-56
2023/11/24 07:03:23;;;;;;;7.03;1.52;;;;;;;;;;5003128;28;20428;-58
2023/11/24 07:05:56;;;;;;;6.25;1.48;;;;;;;;;;5004605;28;20056;-59
2023/11/24 07:08:24;;;;;;;4.15;0.88;;;;;;;;;;5000513;28;20128;-59
2023/11/24 07:10:51;;;;;;;6.60;1.13;;;;;;;;;;5003040;28;20050;-59
2023/11/24 07:13:32;;;;;;;4.65;1.15;;;;;;;;;;5003458;28;20560;-59
2023/11/24 07:15:59;;;;;;;4.50;1.10;;;;;;;;;;5003080;28;20108;-56
2023/11/24 07:18:34;;;;;;;5.93;1.15;;;;;;;;;;5004266;28;20052;-66
2023/11/24 07:21:01;;;;;;;;;;;;;;;;;;5001889;28;20505;-67
2023/11/24 07:23:28;;;;;;;4.25;0.95;;;;;;;;;;4999723;28;20384;-67
2023/11/24 07:26:02;;;;;;;4.32;1.33;;;;;;;;;;4999641;28;20054;-67
2023/11/24 07:28:30;;;;;;;2.63;1.13;;;;;;;;;;5002676;28;20050;-67
2023/11/24 07:30:57;;;;;;;6.22;1.10;;;;;;;;;;5003089;28;20065;-66
2023/11/24 07:33:33;;;;;;;5.28;1.10;;;;;;;;;;5001146;28;20068;-67
2023/11/24 07:36:01;;;;;;;5.38;1.15;;;;;;;;;;5002659;28;20054;-66
2023/11/24 07:38:34;;;;;;;6.40;1.10;;;;;;;;;;5002041;28;20136;-67
2023/11/24 07:41:05;;;;;;;7.03;1.20;;;;;;;;;;5000087;28;20053;-67
2023/11/24 07:43:33;;;;;;;3.22;0.98;;;;;;;;;;5001226;28;20108;-59
2023/11/24 07:46:07;;;;;;;9.63;1.38;;;;;;;;;;5001871;28;20156;-60
2023/11/24 07:48:35;;;;;;;1.58;0.75;;;;;;;;;;5001292;28;20112;-60
2023/11/24 07:51:02;;;;;;;4.88;1.10;;;;;;;;;;5002021;28;20053;-60
2023/11/24 07:53:36;;;;;;;4.43;1.10;;;;;;;;;;4999533;28;20100;-60
2023/11/24 07:56:05;;;;;;;3.15;1.20;;;;;;;;;;5001286;28;20053;-60
2023/11/24 07:58:39;;;;;;;10.50;1.02;;;;;;;;;;5001496;28;20528;-60
2023/11/24 08:01:06;;;;;;;9.65;1.83;;;;;;;;;;5000902;28;20120;-61
2023/11/24 08:03:35;;;;;;;7.65;1.50;;;;;;;;;;5002380;28;20065;-59
2023/11/24 08:06:08;;;;;;;4.70;1.58;;;;;;;;;;4999917;28;20057;-59
2023/11/24 08:08:36;;;;;;;5.40;1.20;;;;;;;;;;5001575;28;20623;-59
2023/11/24 08:11:16;;;;;;;5.13;1.08;;;;;;;;;;4999375;28;20070;-62
2023/11/24 08:13:50;;;;;;;5.32;1.17;;;;;;;;;;4961615;28;21502;-59
2023/11/24 08:16:25;;;;;;;4.18;1.50;;;;;;;;;;4963634;28;20422;-60
2023/11/24 08:18:53;;;;;;;1.90;0.90;;;;;;;;;;4963509;28;20494;-59
2023/11/24 08:21:20;;;;;;;4.35;1.52;;;;;;;;;;4963321;28;20054;-60
2023/11/24 08:23:54;;;;;;;8.88;1.60;;;;;;;;;;4960313;28;20105;-59
2023/11/24 08:26:22;;;;;;;3.65;1.63;;;;;;;;;;4961970;28;20411;-59
2023/11/24 08:28:59;;;;;;;5.82;1.40;;;;;;;;;;4962285;28;20101;-59
2023/11/24 08:31:26;;;;;;;8.02;2.50;;;;;;;;;;4962278;28;20053;-66
2023/11/24 08:33:53;;;;;;;4.80;1.40;;;;;;;;;;4963016;28;20926;-67
2023/11/24 08:36:28;;;;;;;7.30;1.63;;;;;;;;;;4963027;28;20089;-67
2023/11/24 08:38:55;;;;;;;5.75;1.33;;;;;;;;;;4960994;28;20046;-67
2023/11/24 08:41:28;;;;;;;5.75;1.70;;;;;;;;;;4960976;28;20584;-58
2023/11/24 08:44:06;;;;;;;14.00;2.47;;;;;;;;;;4961688;28;20114;-59
2023/11/24 08:46:43;;;;;;;4.15;1.10;;;;;;;;;;4961848;28;20066;-58
2023/11/24 08:49:11;;;;;;;4.00;0.95;;;;;;;;;;4965422;28;20065;-57
2023/11/24 08:51:45;;;;;;;1.30;0.82;;;;;;;;;;4962770;28;20121;-59
2023/11/24 08:54:13;;;;;;;5.93;1.00;;;;;;;;;;4962271;28;20513;-58
2023/11/24 08:56:40;;;;;;;9.63;1.20;;;;;;;;;;4961114;28;20922;-58
2023/11/24 08:59:14;;;;;;;5.57;0.80;;;;;;;;;;4961345;28;20113;-62
2023/11/24 09:01:41;;;;;;;1.48;0.80;;;;;;;;;;4963285;28;20114;-62
2023/11/24 09:04:16;;;;;;;0.52;0.47;;;;;;;;;;4962639;28;20054;-62
2023/11/24 09:06:43;;;;;;;4.22;0.82;;;;;;;;;;4962951;28;20074;-62
2023/11/24 09:09:12;;;;;;;2.88;0.70;;;;;;;;;;4957726;28;20058;-60
2023/11/24 09:11:52;;;;;;;5.13;1.33;;;;;;;;;;4969250;28;20069;-56
2023/11/24 09:14:26;;;;;;;3.53;0.80;;;;;;;;;;4999276;28;20501;-55
2023/11/24 09:17:00;;;;;;;5.05;0.98;;;;;;;;;;5000939;28;20472;-56
2023/11/24 09:19:28;;;;;;;3.55;0.90;;;;;;;;;;4997571;28;20057;-58
2023/11/24 09:21:55;;;;;;;3.05;0.80;;;;;;;;;;4998701;28;20580;-57
2023/11/24 09:24:29;;;;;;;1.70;0.80;;;;;;;;;;4998253;28;20062;-57
2023/11/24 09:26:57;;;;;;;0.77;0.60;;;;;;;;;;5000350;28;20058;-48
2023/11/24 09:29:30;;;;;;;2.63;0.73;;;;;;;;;;4998293;28;20053;-51
2023/11/24 09:31:58;;;;;;;1.92;0.93;;;;;;;;;;4999754;28;20051;-47
2023/11/24 09:34:25;;;;;;;1.50;0.73;;;;;;;;;;5002465;28;20211;-50
2023/11/24 09:37:01;;;;;;;3.75;0.60;;;;;;;;;;5001862;28;20501;-67
2023/11/24 09:39:28;;;;;;;3.03;0.68;;;;;;;;;;4998756;28;20100;-59
2023/11/24 09:41:56;;;;;;;1.85;0.60;;;;;;;;;;4998286;28;20065;-57
2023/11/24 09:44:29;;;;;;;1.02;0.75;;;;;;;;;;4998106;28;20084;-58
2023/11/24 09:46:57;;;;;;;1.15;0.60;;;;;;;;;;5000597;28;20437;-55
2023/11/24 09:49:32;;;;;;;3.80;0.68;;;;;;;;;;4997813;28;20074;-58
2023/11/24 09:51:59;;;;;;;3.17;0.50;;;;;;;;;;4997524;28;20050;-58
2023/11/24 09:54:27;;;;;;;3.50;0.93;;;;;;;;;;4997782;28;20141;-58
2023/11/24 09:57:02;;;;;;;3.03;0.80;;;;;;;;;;4997142;28;20058;-58
2023/11/24 09:59:30;;;;;;;1.65;0.70;;;;;;;;;;4998884;28;20052;-57
2023/11/24 10:02:04;;;;;;;0.70;0.65;;;;;;;;;;4997942;28;20424;-55
2023/11/24 10:04:32;;;;;;;1.65;0.73;;;;;;;;;;5000908;28;20054;-60
2023/11/24 10:07:00;;;;;;;2.05;0.73;;;;;;;;;;5001388;28;20077;-68
2023/11/24 10:09:34;;;;;;;2.63;1.10;;;;;;;;;;4997281;28;24183;-60
2023/11/24 10:12:02;;;;;;;1.95;0.85;;;;;;;;;;4996943;28;20054;-59
2023/11/24 10:14:43;;;;;;;3.03;0.80;;;;;;;;;;4998298;28;20476;-59
2023/11/24 10:17:11;;;;;;;1.63;0.65;;;;;;;;;;4998399;28;20116;-59
2023/11/24 10:19:44;;;;;;;1.20;0.60;;;;;;;;;;4997162;28;20053;-59
2023/11/24 10:22:12;;;;;;;1.45;0.90;;;;;;;;;;4998046;28;20066;-58
2023/11/24 10:24:39;;;;;;;1.77;0.57;;;;;;;;;;4998782;28;20065;-54
2023/11/24 10:27:23;;;;;;;0.68;0.43;;;;;;;;;;4998360;28;20057;-53
2023/11/24 10:29:51;;;;;;;1.48;0.50;;;;;;;;;;4997111;28;20054;-56
2023/11/24 10:32:25;;;;;;;1.42;0.60;;;;;;;;;;4998845;28;20058;-52
2023/11/24 10:34:52;;;;;;;1.20;0.73;;;;;;;;;;5002920;28;20053;-64
2023/11/24 10:37:28;;;;;;;1.52;0.57;;;;;;;;;;5004806;28;20054;-63
2023/11/24 10:40:01;;;;;;;0.85;0.43;;;;;;;;;;5003124;28;20049;-61
2023/11/24 10:42:35;;;;;;;1.25;0.50;;;;;;;;;;5001992;28;20050;-61
2023/11/24 10:45:06;;;;;;;4.00;0.90;;;;;;;;;;4998053;28;20062;-61
2023/11/24 10:47:36;;;;;;;1.45;0.82;;;;;;;;;;5003038;28;20479;-61
2023/11/24 10:50:14;;;;;;;2.35;0.70;;;;;;;;;;5000808;28;20061;-61
2023/11/24 10:53:01;;;;;;;2.08;0.98;;;;;;;;;;4999812;28;20104;-55
2023/11/24 10:55:38;;;;;;;1.98;0.47;;;;;;;;;;5004311;28;20053;-53
2023/11/24 10:58:13;;;;;;;2.28;0.50;;;;;;;;;;5003719;28;20066;-54
2023/11/24 11:00:41;;;;;;;3.30;0.70;;;;;;;;;;5000044;28;20049;-53
2023/11/24 11:03:12;;;;;;;1.65;0.73;;;;;;;;;;5002108;28;20064;-59
2023/11/24 11:05:52;;;;;;;2.65;0.60;;;;;;;;;;5001892;28;20552;-61
2023/11/24 11:08:19;;;;;;;1.08;0.50;;;;;;;;;;5004135;28;20064;-61
2023/11/24 11:11:12;;;;;;;0.85;0.73;;;;;;;;;;5004063;28;20057;-61
2023/11/24 11:13:46;;;;;;;0.75;0.40;;;;;;;;;;5001097;28;20066;-62
2023/11/24 11:16:20;;;;;;;1.73;0.60;;;;;;;;;;5002338;28;20405;-61
2023/11/24 11:18:49;;;;;;;0.70;0.40;;;;;;;;;;4999305;28;20053;-61
2023/11/24 11:21:36;;;;;;;0.98;0.70;;;;;;;;;;5001261;28;20054;-60
2023/11/24 11:24:22;;;;;;;1.38;0.60;;;;;;;;;;4983279;28;20054;-60
2023/11/24 11:26:50;;;;;;;2.17;1.27;;;;;;;;;;5001806;28;20065;-59
2023/11/24 11:29:33;;;;;;;1.75;0.93;;;;;;;;;;5002135;28;20050;-60
2023/11/24 11:32:01;;;;;;;1.13;0.75;;;;;;;;;;5003053;28;20054;-64
2023/11/24 11:34:35;;;;;;;2.03;0.93;;;;;;;;;;5001492;28;20132;-63
2023/11/24 11:37:05;;;;;;;3.00;1.35;;;;;;;;;;5001093;28;20428;-63
2023/11/24 11:39:58;;;;;;;0.68;0.68;;;;;;;;;;5001143;28;20054;-63
2023/11/24 11:42:51;;;;;;;5.25;0.70;;;;;;;;;;5001279;28;20053;-64
2023/11/24 11:45:29;;;;;;;1.10;0.90;;;;;;;;;;5001137;28;20066;-63
2023/11/24 11:47:59;;;;;;;6.35;0.68;;;;;;;;;;4999991;28;20060;-63
2023/11/24 11:50:54;;;;;;;2.15;0.90;;;;;;;;;;5001418;28;20049;-58
2023/11/24 11:53:25;;;;;;;3.03;1.10;;;;;;;;;;5003069;28;20099;-59
2023/11/24 11:56:06;;;;;;;4.03;1.02;;;;;;;;;;5002381;28;20206;-58
2023/11/24 11:58:34;;;;;;;1.17;0.90;;;;;;;;;;4999782;28;20088;-59
2023/11/24 12:01:09;;;;;;;4.40;1.25;;;;;;;;;;5002614;28;20069;-61
2023/11/24 12:03:36;;;;;;;5.07;1.20;;;;;;;;;;4998629;28;20058;-48
2023/11/24 12:06:05;;;;;;;;;;;;;;;;;;5002491;28;20188;-48
2023/11/24 12:08:39;;;;;;;6.95;1.67;;;;;;;;;;5001123;28;19929;-47
2023/11/24 12:11:06;;;;;;;6.68;1.88;;;;;;;;;;5001985;28;20065;-50
2023/11/24 12:13:48;;;;;;;2.63;1.50;;;;;;;;;;5001709;28;20397;-46
2023/11/24 12:16:15;;;;;;;1.95;1.30;;;;;;;;;;5001943;28;20042;-47
2023/11/24 12:18:52;;;;;;;3.22;1.70;;;;;;;;;;5001460;28;20111;-61
2023/11/24 12:21:26;;;;;;;6.30;1.80;;;;;;;;;;4999392;28;20100;-63
2023/11/24 12:24:01;;;;;;;5.90;1.48;;;;;;;;;;4999852;28;20879;-61
2023/11/24 12:26:44;;;;;;;2.85;1.50;;;;;;;;;;4998975;28;20097;-48
2023/11/24 12:29:18;;;;;;;3.45;1.10;;;;;;;;;;5001997;28;20779;-64
2023/11/24 12:31:46;;;;;;;2.38;1.63;;;;;;;;;;5001253;28;20046;-51
2023/11/24 12:34:20;;;;;;;2.67;1.25;;;;;;;;;;4998124;28;20144;-50
2023/11/24 12:36:54;;;;;;;4.38;1.20;;;;;;;;;;4999519;28;20135;-47
2023/11/24 12:39:24;;;;;;;7.80;1.30;;;;;;;;;;4999037;28;20053;-49
2023/11/24 12:41:58;;;;;;;4.13;2.10;;;;;;;;;;4999647;28;20865;-51
2023/11/24 12:44:34;;;;;;;1.33;0.95;;;;;;;;;;4999632;28;20398;-47
2023/11/24 12:47:14;;;;;;;1.95;1.30;;;;;;;;;;4999988;28;20062;-46
2023/11/24 12:49:58;;;;;;;1.67;1.00;;;;;;;;;;5001051;28;20076;-49
2023/11/24 12:52:33;;;;;;;2.83;0.80;;;;;;;;;;5002045;28;20057;-50
2023/11/24 12:55:07;;;;;;;2.45;1.33;;;;;;;;;;4982695;28;20057;-50
2023/11/24 12:57:42;;;;;;;2.38;1.13;;;;;;;;;;5000398;28;20054;-56
2023/11/24 13:00:13;;;;;;;2.88;1.35;;;;;;;;;;4999059;28;20065;-61
2023/11/24 13:02:48;;;;;;;1.70;0.98;;;;;;;;;;5000044;28;20064;-61
2023/11/24 13:05:16;;;;;;;1.75;0.88;;;;;;;;;;5002701;28;20054;-60
2023/11/24 13:07:44;;;;;;;1.30;0.82;;;;;;;;;;5000645;28;20085;-60
2023/11/24 13:10:17;;;;;;;1.23;0.75;;;;;;;;;;5001087;28;20141;-61
2023/11/24 13:12:51;;;;;;;1.77;0.73;;;;;;;;;;4998473;28;20068;-61
2023/11/24 13:15:27;;;;;;;1.15;0.70;;;;;;;;;;4999980;28;20065;-55
2023/11/24 13:17:58;;;;;;;1.45;0.68;;;;;;;;;;5000015;28;20548;-55
2023/11/24 13:20:28;;;;;;;2.15;0.70;;;;;;;;;;5000069;28;20061;-56
2023/11/24 13:23:01;;;;;;;1.25;0.52;;;;;;;;;;5000852;28;20101;-56
2023/11/24 13:25:29;;;;;;;1.80;0.77;;;;;;;;;;5001236;28;20089;-56
2023/11/24 13:27:57;;;;;;;3.30;0.57;;;;;;;;;;4999440;28;20048;-59
2023/11/24 13:30:30;;;;;;;2.50;0.70;;;;;;;;;;4998600;28;20061;-59
2023/11/24 13:32:59;;;;;;;1.08;0.60;;;;;;;;;;4998211;28;20046;-60
2023/11/24 13:35:34;;;;;;;1.38;0.70;;;;;;;;;;5001586;28;20054;-58
2023/11/24 13:38:01;;;;;;;1.23;0.60;;;;;;;;;;4999687;28;20805;-59
2023/11/24 13:40:30;;;;;;;1.85;0.60;;;;;;;;;;5000177;28;20432;-59
2023/11/24 13:43:04;;;;;;;1.23;0.63;;;;;;;;;;4999590;28;20143;-62
2023/11/24 13:45:32;;;;;;;1.15;0.55;;;;;;;;;;4998925;28;20056;-62
2023/11/24 13:48:07;;;;;;;1.70;0.60;;;;;;;;;;4997823;28;20057;-62
2023/11/24 13:50:34;;;;;;;3.72;0.60;;;;;;;;;;5001939;28;20081;-62
2023/11/24 13:53:03;;;;;;;7.10;1.35;;;;;;;;;;4999533;28;20085;-58
2023/11/24 13:55:43;;;;;;;1.05;0.55;;;;;;;;;;5000640;28;20046;-56
2023/11/24 13:58:11;;;;;;;1.70;0.80;;;;;;;;;;4999445;28;20050;-54
2023/11/24 14:00:46;;;;;;;1.80;0.65;;;;;;;;;;4994374;28;20058;-53
2023/11/24 14:03:13;;;;;;;1.50;0.70;;;;;;;;;;4998783;28;20120;-56
2023/11/24 14:05:41;;;;;;;1.15;0.70;;;;;;;;;;5001970;28;20104;-56
2023/11/24 14:08:15;;;;;;;1.40;0.80;;;;;;;;;;5005654;28;20049;-55
2023/11/24 14:10:42;;;;;;;2.60;1.00;;;;;;;;;;5005162;28;20065;-60
2023/11/24 14:13:23;;;;;;;4.20;0.80;;;;;;;;;;5001425;28;20054;-60
2023/11/24 14:15:51;;;;;;;3.10;0.90;;;;;;;;;;5001974;28;20140;-64
2023/11/24 14:18:25;;;;;;;2.67;1.10;;;;;;;;;;5004099;28;20054;-60
2023/11/24 14:20:53;;;;;;;2.38;0.88;;;;;;;;;;5003323;28;20575;-59
2023/11/24 14:23:26;;;;;;;2.10;1.05;;;;;;;;;;5005959;28;20057;-58
2023/11/24 14:25:54;;;;;;;1.67;0.65;;;;;;;;;;5005143;28;20112;-60
2023/11/24 14:28:21;;;;;;;2.13;0.82;;;;;;;;;;5000870;28;20134;-59
2023/11/24 14:30:55;;;;;;;4.10;1.25;;;;;;;;;;5002491;28;20141;-60
2023/11/24 14:33:24;;;;;;;1.83;0.88;;;;;;;;;;5000862;28;20470;-60
2023/11/24 14:35:58;;;;;;;2.20;0.68;;;;;;;;;;5000525;28;20058;-60
2023/11/24 14:38:29;;;;;;;1.77;0.70;;;;;;;;;;4989082;28;20057;-58
2023/11/24 14:40:59;;;;;;;3.65;0.90;;;;;;;;;;5004362;28;20058;-59
2023/11/24 14:43:40;;;;;;;0.90;0.75;;;;;;;;;;5002798;28;20417;-59
2023/11/24 14:46:11;;;;;;;2.38;1.00;;;;;;;;;;4996929;28;20057;-59
2023/11/24 14:48:49;;;;;;;2.60;1.17;;;;;;;;;;5004172;28;20058;-58
2023/11/24 14:51:22;;;;;;;1.75;1.05;;;;;;;;;;5005254;28;20784;-67
2023/11/24 14:53:56;;;;;;;2.17;1.02;;;;;;;;;;5017106;28;20485;-59
2023/11/24 14:56:23;;;;;;;3.17;0.73;;;;;;;;;;5006044;28;20069;-57
2023/11/24 14:58:51;;;;;;;0.90;0.52;;;;;;;;;;5005308;28;20050;-59
2023/11/24 15:01:31;;;;;;;2.60;1.00;;;;;;;;;;5002038;28;20062;-59
2023/11/24 15:03:59;;;;;;;1.42;0.80;;;;;;;;;;5003287;28;20057;-57
2023/11/24 15:06:33;;;;;;;2.53;0.80;;;;;;;;;;5004226;28;20056;-59
2023/11/24 15:09:03;;;;;;;1.63;0.75;;;;;;;;;;5004940;28;20068;-61
2023/11/24 15:11:48;;;;;;;1.38;0.70;;;;;;;;;;5006881;28;20050;-62
2023/11/24 15:14:31;;;;;;;1.77;0.90;;;;;;;;;;5004151;28;20068;-61